Time;durP1;ratioP1;P1;durP2;ratioP2;P2;SDS_P1;SDS_P2;PMS_P1;PMS_P2;Temp;Humidity;BMP_temperature;BMP_pressure;BME280_temperature;BME280_humidity;BME280_pressure;Samples;Min_cycle;Max_cycle;Signal;HPM_P1;HPM_P2
2024/01/26 00:02:01;;;;;;;;;14.33;14.33;;;;;;;;5043936;28;45963;-81
2024/01/26 00:04:26;;;;;;;;;18.00;16.67;;;;;;;;5042688;28;47467;-80
2024/01/26 00:06:52;;;;;;;;;19.67;18.33;;;;;;;;5062082;28;45401;-81
2024/01/26 00:09:17;;;;;;;;;18.00;17.00;;;;;;;;5062519;28;45339;-81
2024/01/26 00:11:43;;;;;;;;;19.67;17.67;;;;;;;;5062094;28;45486;-81
2024/01/26 00:14:09;;;;;;;;;21.33;19.00;;;;;;;;5061021;28;46205;-81
2024/01/26 00:16:35;;;;;;;;;19.33;17.67;;;;;;;;5063075;28;45206;-80
2024/01/26 00:19:00;;;;;;;;;17.67;16.00;;;;;;;;5045760;28;45359;-80
2024/01/26 00:21:25;;;;;;;;;17.00;17.00;;;;;;;;5061389;28;45285;-80
2024/01/26 00:23:50;;;;;;;;;15.33;14.67;;;;;;;;5063367;28;45410;-80
2024/01/26 00:26:16;;;;;;;;;19.33;17.33;;;;;;;;5042747;28;45789;-81
2024/01/26 00:28:41;;;;;;;;;11.33;11.33;;;;;;;;5044688;28;45348;-80
2024/01/26 00:31:06;;;;;;;;;15.00;15.00;;;;;;;;5061532;28;45339;-80
2024/01/26 00:33:32;;;;;;;;;13.67;13.00;;;;;;;;5063816;28;45218;-80
2024/01/26 00:35:57;;;;;;;;;14.00;13.00;;;;;;;;5034055;28;46092;-81
2024/01/26 00:38:22;;;;;;;;;11.00;11.00;;;;;;;;5029267;28;45353;-80
2024/01/26 00:40:48;;;;;;;;;13.67;13.67;;;;;;;;5064195;28;45267;-81
2024/01/26 00:43:13;;;;;;;;;14.67;13.67;;;;;;;;5064987;28;45351;-80
2024/01/26 00:45:39;;;;;;;;;14.67;14.00;;;;;;;;5063994;28;45315;-80
2024/01/26 00:48:04;;;;;;;;;11.00;11.00;;;;;;;;5047265;28;45417;-81
2024/01/26 00:50:29;;;;;;;;;17.00;14.33;;;;;;;;5063415;28;45405;-80
2024/01/26 00:52:54;;;;;;;;;12.67;12.67;;;;;;;;5045775;28;47115;-80
2024/01/26 00:55:19;;;;;;;;;13.00;12.67;;;;;;;;5045646;28;45285;-80
2024/01/26 00:57:45;;;;;;;;;16.33;16.33;;;;;;;;5064216;28;45216;-80
2024/01/26 01:00:10;;;;;;;;;14.00;13.67;;;;;;;;5064417;28;46171;-80
2024/01/26 01:02:36;;;;;;;;;16.33;14.67;;;;;;;;5062933;28;45484;-80
2024/01/26 01:05:01;;;;;;;;;15.67;14.67;;;;;;;;5066203;28;45313;-80
2024/01/26 01:07:27;;;;;;;;;13.33;13.00;;;;;;;;5065210;28;45264;-80
2024/01/26 01:09:52;;;;;;;;;14.67;14.67;;;;;;;;5063026;28;45301;-81
2024/01/26 01:12:17;;;;;;;;;15.00;14.67;;;;;;;;5065220;28;45263;-80
2024/01/26 01:14:42;;;;;;;;;8.67;6.33;;;;;;;;5045771;28;45261;-80
2024/01/26 01:17:09;;;;;;;;;16.00;15.00;;;;;;;;5063967;28;45224;-81
2024/01/26 01:19:34;;;;;;;;;19.33;17.67;;;;;;;;5063976;28;45514;-80
2024/01/26 01:21:59;;;;;;;;;13.67;13.67;;;;;;;;5066556;28;46698;-80
2024/01/26 01:24:25;;;;;;;;;14.67;14.67;;;;;;;;5063205;28;45613;-80
2024/01/26 01:26:50;;;;;;;;;9.33;9.00;;;;;;;;5033282;28;45304;-80
2024/01/26 01:29:15;;;;;;;;;15.33;15.33;;;;;;;;5042783;28;45292;-80
2024/01/26 01:31:41;;;;;;;;;12.67;12.67;;;;;;;;5044604;28;45346;-79
2024/01/26 01:34:06;;;;;;;;;16.67;15.67;;;;;;;;5045858;28;45246;-80
2024/01/26 01:36:31;;;;;;;;;19.00;15.00;;;;;;;;5044456;28;45350;-81
2024/01/26 01:38:56;;;;;;;;;15.00;15.00;;;;;;;;5043321;28;45431;-80
2024/01/26 01:41:22;;;;;;;;;12.00;10.33;;;;;;;;5043616;28;45410;-81
2024/01/26 01:43:57;;;;;;;;;15.67;14.67;;;;;;;;5025245;28;45840;-80
2024/01/26 01:46:22;;;;;;;;;16.33;15.00;;;;;;;;5041742;28;45319;-80
2024/01/26 01:48:48;;;;;;;;;14.67;12.67;;;;;;;;5042651;28;45758;-80
2024/01/26 01:51:14;;;;;;;;;19.00;16.33;;;;;;;;5041495;28;46494;-80
2024/01/26 01:53:40;;;;;;;;;16.00;14.67;;;;;;;;5025159;28;45287;-80
2024/01/26 01:56:09;;;;;;;;;17.33;15.00;;;;;;;;5042265;28;45482;-80
2024/01/26 01:58:37;;;;;;;;;16.33;14.33;;;;;;;;5057671;28;45599;-80
2024/01/26 02:01:02;;;;;;;;;18.33;15.33;;;;;;;;5063687;28;46414;-80
2024/01/26 02:03:28;;;;;;;;;14.33;13.00;;;;;;;;5062719;28;45294;-80
2024/01/26 02:05:53;;;;;;;;;15.00;14.00;;;;;;;;5044819;28;45360;-80
2024/01/26 02:08:19;;;;;;;;;15.33;14.67;;;;;;;;5062833;28;45432;-80
2024/01/26 02:10:44;;;;;;;;;16.33;16.00;;;;;;;;5062283;28;45643;-81
2024/01/26 02:13:09;;;;;;;;;14.67;14.67;;;;;;;;5062851;28;45237;-81
2024/01/26 02:15:34;;;;;;;;;18.67;18.00;;;;;;;;5044556;28;45493;-80
2024/01/26 02:17:59;;;;;;;;;18.67;14.33;;;;;;;;5063474;28;45372;-81
2024/01/26 02:20:25;;;;;;;;;21.00;18.67;;;;;;;;5044034;28;47181;-80
2024/01/26 02:22:50;;;;;;;;;18.33;18.33;;;;;;;;5063091;28;45353;-80
2024/01/26 02:25:15;;;;;;;;;18.00;18.00;;;;;;;;5045663;28;45544;-80
2024/01/26 02:27:40;;;;;;;;;16.67;15.67;;;;;;;;5044578;28;46357;-80
2024/01/26 02:30:06;;;;;;;;;13.67;13.33;;;;;;;;5044154;28;47648;-79
2024/01/26 02:32:31;;;;;;;;;15.67;12.67;;;;;;;;5062602;28;45335;-80
2024/01/26 02:34:56;;;;;;;;;14.00;13.00;;;;;;;;5061186;28;45231;-81
2024/01/26 02:37:21;;;;;;;;;15.67;15.00;;;;;;;;5063522;28;45194;-80
2024/01/26 02:39:46;;;;;;;;;16.67;14.67;;;;;;;;5044046;28;47039;-80
2024/01/26 02:42:11;;;;;;;;;17.67;15.00;;;;;;;;5063388;28;45284;-80
2024/01/26 02:44:37;;;;;;;;;16.67;15.00;;;;;;;;5062513;28;45216;-80
2024/01/26 02:47:02;;;;;;;;;14.33;14.33;;;;;;;;5061695;28;45212;-81
2024/01/26 02:49:28;;;;;;;;;15.67;13.00;;;;;;;;5046037;28;48409;-80
2024/01/26 02:51:53;;;;;;;;;14.00;12.67;;;;;;;;5065413;28;45240;-80
2024/01/26 02:54:18;;;;;;;;;16.00;15.67;;;;;;;;5043993;28;45355;-80
2024/01/26 02:56:43;;;;;;;;;15.33;13.00;;;;;;;;5046126;28;45819;-80
2024/01/26 02:59:08;;;;;;;;;19.00;16.33;;;;;;;;5063079;28;45383;-80
2024/01/26 03:01:34;;;;;;;;;15.33;14.00;;;;;;;;5044523;28;45239;-80
2024/01/26 03:03:59;;;;;;;;;15.00;15.00;;;;;;;;5063135;28;45258;-80
2024/01/26 03:06:24;;;;;;;;;14.67;13.00;;;;;;;;5062449;28;45276;-80
2024/01/26 03:08:49;;;;;;;;;17.67;14.67;;;;;;;;5044275;28;48293;-80
2024/01/26 03:11:15;;;;;;;;;17.00;17.00;;;;;;;;5063543;28;45399;-80
2024/01/26 03:13:40;;;;;;;;;13.00;13.00;;;;;;;;5064303;28;45539;-80
2024/01/26 03:16:05;;;;;;;;;14.00;14.00;;;;;;;;5045973;28;47299;-80
2024/01/26 03:18:31;;;;;;;;;13.33;13.33;;;;;;;;5044582;28;46930;-80
2024/01/26 03:20:56;;;;;;;;;19.00;16.33;;;;;;;;5061183;28;45341;-80
2024/01/26 03:23:21;;;;;;;;;18.33;16.00;;;;;;;;5046727;28;45340;-80
2024/01/26 03:25:46;;;;;;;;;15.67;15.67;;;;;;;;5063120;28;45351;-80
2024/01/26 03:28:11;;;;;;;;;16.67;16.33;;;;;;;;5062758;28;46303;-80
2024/01/26 03:30:38;;;;;;;;;19.67;17.00;;;;;;;;5065090;28;45359;-80
2024/01/26 03:33:03;;;;;;;;;14.00;13.00;;;;;;;;5045868;28;45377;-79
2024/01/26 03:35:29;;;;;;;;;13.00;13.00;;;;;;;;5061484;28;45249;-80
2024/01/26 03:37:54;;;;;;;;;13.33;13.00;;;;;;;;5065500;28;45430;-81
2024/01/26 03:40:21;;;;;;;;;15.00;14.67;;;;;;;;5043996;28;45457;-81
2024/01/26 03:42:46;;;;;;;;;14.67;11.67;;;;;;;;5062122;28;45452;-80
2024/01/26 03:45:12;;;;;;;;;15.67;15.00;;;;;;;;5042077;28;45878;-80
2024/01/26 03:47:37;;;;;;;;;12.33;12.33;;;;;;;;5062275;28;45178;-80
2024/01/26 03:50:04;;;;;;;;;13.67;13.67;;;;;;;;5061634;28;45358;-80
2024/01/26 03:52:29;;;;;;;;;13.33;11.33;;;;;;;;5042855;28;45327;-80
2024/01/26 03:54:54;;;;;;;;;16.67;15.33;;;;;;;;5062395;28;45225;-80
2024/01/26 03:57:20;;;;;;;;;13.67;13.67;;;;;;;;5046944;28;48367;-79
2024/01/26 03:59:45;;;;;;;;;14.00;13.67;;;;;;;;5061315;28;45404;-80
2024/01/26 04:02:10;;;;;;;;;14.33;14.00;;;;;;;;5043477;28;45371;-80
2024/01/26 04:04:35;;;;;;;;;14.00;11.67;;;;;;;;5060399;28;45439;-80
2024/01/26 04:07:00;;;;;;;;;10.67;9.00;;;;;;;;5041645;28;48279;-80
2024/01/26 04:09:25;;;;;;;;;13.00;13.00;;;;;;;;5062942;28;45490;-81
2024/01/26 04:11:51;;;;;;;;;13.00;10.33;;;;;;;;5045050;28;45256;-80
2024/01/26 04:14:16;;;;;;;;;14.33;14.33;;;;;;;;5063333;28;45630;-81
2024/01/26 04:16:41;;;;;;;;;15.33;13.67;;;;;;;;5063108;28;45512;-80
2024/01/26 04:19:06;;;;;;;;;13.00;12.33;;;;;;;;5062948;28;45391;-80
2024/01/26 04:21:31;;;;;;;;;13.00;13.00;;;;;;;;5062869;28;45498;-80
2024/01/26 04:23:57;;;;;;;;;15.33;15.33;;;;;;;;5063268;28;45297;-81
2024/01/26 04:26:22;;;;;;;;;15.33;12.67;;;;;;;;5044584;28;48214;-81
2024/01/26 04:28:47;;;;;;;;;12.67;11.00;;;;;;;;5063112;28;45285;-81
2024/01/26 04:31:13;;;;;;;;;15.00;15.00;;;;;;;;5046513;28;45284;-81
2024/01/26 04:33:38;;;;;;;;;19.00;15.67;;;;;;;;5065087;28;46065;-80
2024/01/26 04:36:06;;;;;;;;;16.33;14.33;;;;;;;;5062860;28;46603;-80
2024/01/26 04:38:31;;;;;;;;;15.67;13.67;;;;;;;;5044842;28;45441;-81
2024/01/26 04:40:56;;;;;;;;;15.33;13.33;;;;;;;;5062754;28;45293;-80
2024/01/26 04:43:21;;;;;;;;;14.33;13.33;;;;;;;;5062696;28;45209;-80
2024/01/26 04:45:46;;;;;;;;;13.67;13.00;;;;;;;;5044286;28;47450;-82
2024/01/26 04:48:13;;;;;;;;;14.33;13.33;;;;;;;;5044611;28;45163;-80
2024/01/26 04:50:38;;;;;;;;;14.00;12.33;;;;;;;;5044109;28;45377;-81
2024/01/26 04:53:03;;;;;;;;;13.33;12.00;;;;;;;;5044160;28;45997;-80
2024/01/26 04:55:29;;;;;;;;;14.00;12.00;;;;;;;;5044043;28;48614;-81
2024/01/26 04:57:54;;;;;;;;;14.67;14.67;;;;;;;;5062805;28;45265;-81
2024/01/26 05:00:19;;;;;;;;;14.67;13.33;;;;;;;;5062858;28;45255;-81
2024/01/26 05:02:45;;;;;;;;;13.33;12.00;;;;;;;;5062489;28;45269;-79
2024/01/26 05:05:11;;;;;;;;;15.33;13.67;;;;;;;;5062266;28;45672;-81
2024/01/26 05:07:36;;;;;;;;;13.33;11.67;;;;;;;;5044078;28;45367;-80
2024/01/26 05:10:02;;;;;;;;;14.67;14.67;;;;;;;;5045066;28;45360;-81
2024/01/26 05:12:27;;;;;;;;;12.00;12.00;;;;;;;;5062039;28;45407;-79
2024/01/26 05:14:52;;;;;;;;;14.33;14.00;;;;;;;;5044136;28;47027;-80
2024/01/26 05:17:17;;;;;;;;;12.00;12.00;;;;;;;;5062733;28;45292;-80
2024/01/26 05:19:42;;;;;;;;;13.67;13.00;;;;;;;;5062663;28;45304;-80
2024/01/26 05:22:08;;;;;;;;;12.67;12.00;;;;;;;;5061033;28;45332;-80
2024/01/26 05:24:33;;;;;;;;;10.33;10.33;;;;;;;;5045231;28;47444;-79
2024/01/26 05:26:58;;;;;;;;;14.67;13.00;;;;;;;;5043690;28;45435;-80
2024/01/26 05:29:23;;;;;;;;;12.33;9.67;;;;;;;;5044027;28;45397;-80
2024/01/26 05:31:48;;;;;;;;;15.67;12.00;;;;;;;;5061955;28;45260;-80
2024/01/26 05:34:13;;;;;;;;;12.67;12.67;;;;;;;;5062174;28;45288;-80
2024/01/26 05:36:40;;;;;;;;;12.33;12.33;;;;;;;;5043964;28;45269;-80
2024/01/26 05:39:05;;;;;;;;;12.00;12.00;;;;;;;;5044241;28;45313;-80
2024/01/26 05:41:30;;;;;;;;;11.67;11.67;;;;;;;;5060863;28;45429;-80
2024/01/26 05:43:56;;;;;;;;;12.00;11.00;;;;;;;;5041594;28;45318;-80
2024/01/26 05:46:21;;;;;;;;;12.33;12.00;;;;;;;;5042836;28;45221;-81
2024/01/26 05:48:46;;;;;;;;;10.33;10.33;;;;;;;;5043098;28;45213;-83
2024/01/26 05:51:12;;;;;;;;;11.00;10.00;;;;;;;;5040401;28;47262;-81
2024/01/26 05:53:37;;;;;;;;;10.00;10.00;;;;;;;;5044722;28;46105;-82
2024/01/26 05:56:03;;;;;;;;;12.00;10.00;;;;;;;;5041315;28;45709;-82
2024/01/26 05:58:28;;;;;;;;;12.00;10.00;;;;;;;;5043561;28;45365;-82
2024/01/26 06:00:53;;;;;;;;;9.00;9.00;;;;;;;;5062651;28;45445;-82
2024/01/26 06:03:18;;;;;;;;;9.00;8.67;;;;;;;;5063052;28;45211;-82
2024/01/26 06:05:44;;;;;;;;;11.67;11.00;;;;;;;;5045913;28;45987;-81
2024/01/26 06:08:09;;;;;;;;;9.00;9.00;;;;;;;;5062495;28;45223;-82
2024/01/26 06:10:34;;;;;;;;;14.00;10.00;;;;;;;;5062914;28;45388;-81
2024/01/26 06:12:59;;;;;;;;;14.33;11.67;;;;;;;;5063727;28;45284;-81
2024/01/26 06:15:24;;;;;;;;;11.00;10.00;;;;;;;;5044026;28;45268;-83
2024/01/26 06:17:50;;;;;;;;;9.33;9.00;;;;;;;;5043820;28;45523;-82
2024/01/26 06:20:15;;;;;;;;;11.67;10.33;;;;;;;;5063217;28;45889;-83
2024/01/26 06:22:40;;;;;;;;;9.67;8.33;;;;;;;;5084427;27;45744;-82
2024/01/26 06:25:05;;;;;;;;;7.67;7.67;;;;;;;;5083270;28;45303;-80
2024/01/26 06:27:30;;;;;;;;;11.33;11.33;;;;;;;;5078486;28;45372;-82
2024/01/26 06:29:56;;;;;;;;;16.33;14.00;;;;;;;;5053066;28;46279;-81
2024/01/26 06:32:21;;;;;;;;;14.00;11.00;;;;;;;;5072505;28;45710;-81
2024/01/26 06:34:46;;;;;;;;;17.67;16.67;;;;;;;;5062836;28;45385;-81
2024/01/26 06:37:12;;;;;;;;;13.67;13.67;;;;;;;;5063782;28;45386;-81
2024/01/26 06:39:37;;;;;;;;;15.33;14.00;;;;;;;;5062893;28;46387;-83
2024/01/26 06:42:02;;;;;;;;;16.67;14.00;;;;;;;;5074620;28;45571;-83
2024/01/26 06:44:27;;;;;;;;;12.00;10.00;;;;;;;;5060965;28;45298;-81
2024/01/26 06:46:53;;;;;;;;;11.00;11.00;;;;;;;;5042812;28;45511;-82
2024/01/26 06:49:18;;;;;;;;;11.67;11.67;;;;;;;;5060414;28;45418;-82
2024/01/26 06:51:43;;;;;;;;;14.00;11.67;;;;;;;;5061542;28;45486;-82
2024/01/26 06:54:08;;;;;;;;;10.67;10.00;;;;;;;;5061178;28;45356;-84
2024/01/26 06:56:33;;;;;;;;;11.67;11.67;;;;;;;;5044980;28;45552;-82
2024/01/26 06:58:59;;;;;;;;;12.33;11.33;;;;;;;;5046414;28;45998;-83
2024/01/26 07:01:24;;;;;;;;;16.00;14.33;;;;;;;;5045084;28;48523;-79
2024/01/26 07:03:49;;;;;;;;;9.67;9.33;;;;;;;;5079636;28;45499;-84
2024/01/26 07:06:14;;;;;;;;;11.67;11.67;;;;;;;;5083858;28;45367;-82
2024/01/26 07:08:39;;;;;;;;;12.67;12.00;;;;;;;;5085099;28;45631;-81
2024/01/26 07:11:05;;;;;;;;;10.00;10.00;;;;;;;;5083525;28;45513;-82
2024/01/26 07:13:30;;;;;;;;;8.67;8.67;;;;;;;;5064264;28;45894;-81
2024/01/26 07:15:55;;;;;;;;;13.33;11.00;;;;;;;;5082995;28;45393;-82
2024/01/26 07:18:20;;;;;;;;;12.00;12.00;;;;;;;;5081511;28;45353;-82
2024/01/26 07:20:45;;;;;;;;;15.67;13.67;;;;;;;;5081005;28;45255;-81
2024/01/26 07:23:10;;;;;;;;;12.33;12.00;;;;;;;;5062487;28;45304;-84
2024/01/26 07:25:36;;;;;;;;;10.33;10.33;;;;;;;;5062413;28;45275;-81
2024/01/26 07:28:04;;;;;;;;;15.33;14.00;;;;;;;;5073799;28;45307;-82
2024/01/26 07:30:29;;;;;;;;;13.67;11.67;;;;;;;;5059925;28;45200;-81
2024/01/26 07:32:54;;;;;;;;;15.33;14.00;;;;;;;;5059933;28;45205;-80
2024/01/26 07:35:20;;;;;;;;;11.00;11.00;;;;;;;;5041987;28;45324;-81
2024/01/26 07:37:45;;;;;;;;;12.00;11.33;;;;;;;;5059677;28;45263;-80
2024/01/26 07:40:10;;;;;;;;;12.33;12.33;;;;;;;;5059524;28;46081;-82
2024/01/26 07:42:36;;;;;;;;;13.00;12.67;;;;;;;;5059641;28;45299;-81
2024/01/26 07:45:01;;;;;;;;;11.67;11.33;;;;;;;;5064237;28;45458;-79
2024/01/26 07:47:26;;;;;;;;;11.67;11.33;;;;;;;;5076449;28;45295;-80
2024/01/26 07:49:51;;;;;;;;;15.67;12.33;;;;;;;;5077359;28;46911;-80
2024/01/26 07:52:16;;;;;;;;;14.67;13.00;;;;;;;;5077633;28;45445;-80
2024/01/26 07:54:42;;;;;;;;;11.67;11.67;;;;;;;;5060610;28;45691;-79
2024/01/26 07:57:20;;;;;;;;;14.33;13.67;;;;;;;;5059818;28;45563;-80
2024/01/26 07:59:46;;;;;;;;;13.00;11.00;;;;;;;;5020371;28;47979;-79
2024/01/26 08:02:11;;;;;;;;;13.67;13.67;;;;;;;;5062173;28;45445;-80
2024/01/26 08:04:36;;;;;;;;;13.67;12.67;;;;;;;;5072338;28;45240;-79
2024/01/26 08:07:02;;;;;;;;;11.67;10.33;;;;;;;;5066623;28;45386;-79
2024/01/26 08:09:27;;;;;;;;;13.67;12.00;;;;;;;;5078373;27;45369;-80
2024/01/26 08:11:52;;;;;;;;;14.00;12.67;;;;;;;;5078744;28;45316;-79
2024/01/26 08:14:17;;;;;;;;;12.67;12.00;;;;;;;;5079355;28;45317;-80
2024/01/26 08:16:43;;;;;;;;;9.33;9.33;;;;;;;;5079421;27;45243;-79
2024/01/26 08:19:08;;;;;;;;;12.00;12.00;;;;;;;;5060911;28;46112;-80
2024/01/26 08:21:33;;;;;;;;;10.67;9.67;;;;;;;;5052191;28;45257;-81
2024/01/26 08:23:58;;;;;;;;;11.00;11.00;;;;;;;;5058237;28;45464;-81
2024/01/26 08:26:26;;;;;;;;;11.00;11.00;;;;;;;;5061248;28;45477;-81
2024/01/26 08:28:51;;;;;;;;;10.67;10.67;;;;;;;;5058831;28;45280;-80
2024/01/26 08:31:16;;;;;;;;;12.67;11.67;;;;;;;;5069399;28;45346;-80
2024/01/26 08:33:41;;;;;;;;;11.00;10.33;;;;;;;;5067545;28;45330;-80
2024/01/26 08:36:07;;;;;;;;;13.00;12.00;;;;;;;;5069954;28;45253;-80
2024/01/26 08:38:32;;;;;;;;;10.67;9.00;;;;;;;;5072687;28;45588;-80
2024/01/26 08:40:57;;;;;;;;;12.00;10.33;;;;;;;;5068895;28;45434;-79
2024/01/26 08:43:23;;;;;;;;;14.67;11.67;;;;;;;;5079332;28;45264;-80
2024/01/26 08:45:48;;;;;;;;;10.67;10.33;;;;;;;;5060555;28;46985;-79
2024/01/26 08:48:16;;;;;;;;;10.33;10.00;;;;;;;;5078998;27;46060;-79
2024/01/26 08:50:41;;;;;;;;;10.67;10.67;;;;;;;;5060315;28;45855;-79
2024/01/26 08:53:06;;;;;;;;;12.00;11.00;;;;;;;;5060785;28;45312;-78
2024/01/26 08:55:32;;;;;;;;;13.00;12.67;;;;;;;;5065510;28;45506;-80
2024/01/26 08:57:57;;;;;;;;;9.67;9.67;;;;;;;;5062989;28;45336;-80
2024/01/26 09:00:26;;;;;;;;;11.00;11.00;;;;;;;;5043879;28;45912;-79
2024/01/26 09:02:51;;;;;;;;;12.00;12.00;;;;;;;;5044106;28;45454;-78
2024/01/26 09:05:16;;;;;;;;;10.33;10.00;;;;;;;;5061904;28;45390;-78
2024/01/26 09:07:41;;;;;;;;;14.00;14.00;;;;;;;;5061661;28;46371;-79
2024/01/26 09:10:07;;;;;;;;;11.00;11.00;;;;;;;;5072221;27;45385;-80
2024/01/26 09:12:32;;;;;;;;;13.00;13.00;;;;;;;;5061338;28;45407;-80
2024/01/26 09:14:58;;;;;;;;;13.67;13.00;;;;;;;;5061696;28;45502;-80
2024/01/26 09:17:24;;;;;;;;;8.33;7.67;;;;;;;;5043564;28;46091;-79
2024/01/26 09:19:49;;;;;;;;;10.33;10.33;;;;;;;;5061840;28;45366;-78
2024/01/26 09:22:14;;;;;;;;;11.67;10.33;;;;;;;;5043489;28;45318;-77
2024/01/26 09:24:39;;;;;;;;;12.67;11.00;;;;;;;;5061702;28;45530;-79
2024/01/26 09:27:04;;;;;;;;;11.67;11.67;;;;;;;;5061512;28;45511;-79
2024/01/26 09:29:30;;;;;;;;;12.00;12.00;;;;;;;;5061494;28;45247;-79
2024/01/26 09:31:56;;;;;;;;;13.00;11.67;;;;;;;;5043354;28;45353;-79
2024/01/26 09:34:21;;;;;;;;;9.67;9.33;;;;;;;;5061151;28;45246;-79
2024/01/26 09:36:47;;;;;;;;;9.67;9.67;;;;;;;;5043155;28;47581;-78
2024/01/26 09:39:12;;;;;;;;;12.33;11.00;;;;;;;;5061627;28;45300;-78
2024/01/26 09:41:37;;;;;;;;;11.33;11.33;;;;;;;;5061661;28;45164;-79
2024/01/26 09:44:03;;;;;;;;;12.33;11.33;;;;;;;;5043261;28;45460;-79
2024/01/26 09:46:30;;;;;;;;;11.00;11.00;;;;;;;;5061313;28;45701;-80
2024/01/26 09:48:57;;;;;;;;;15.00;13.00;;;;;;;;5061205;28;45376;-80
2024/01/26 09:51:24;;;;;;;;;9.00;7.67;;;;;;;;5071967;28;45531;-79
2024/01/26 09:53:51;;;;;;;;;10.33;10.33;;;;;;;;5057332;28;45476;-78
2024/01/26 09:56:17;;;;;;;;;7.67;6.67;;;;;;;;5042215;28;48849;-78
2024/01/26 09:58:43;;;;;;;;;10.33;8.67;;;;;;;;5053670;28;45248;-76
2024/01/26 10:01:10;;;;;;;;;9.33;9.00;;;;;;;;5066078;28;45341;-77
2024/01/26 10:03:35;;;;;;;;;9.33;9.33;;;;;;;;5042980;28;45756;-78
2024/01/26 10:06:00;;;;;;;;;11.33;11.33;;;;;;;;5060531;28;46106;-80
2024/01/26 10:08:36;;;;;;;;;8.33;8.33;;;;;;;;5065626;28;45474;-78
2024/01/26 10:11:01;;;;;;;;;12.33;11.33;;;;;;;;5071046;28;45525;-77
2024/01/26 10:13:26;;;;;;;;;13.67;11.33;;;;;;;;5051671;28;47095;-77
2024/01/26 10:15:52;;;;;;;;;7.33;7.33;;;;;;;;5068231;28;45430;-78
2024/01/26 10:18:17;;;;;;;;;19.00;17.00;;;;;;;;5053046;27;45441;-78
2024/01/26 10:20:42;;;;;;;;;3.67;3.67;;;;;;;;5069246;27;45339;-79
2024/01/26 10:23:07;;;;;;;;;6.33;5.33;;;;;;;;5070483;28;45332;-79
2024/01/26 10:25:35;;;;;;;;;8.00;3.33;;;;;;;;5071043;28;45385;-80
2024/01/26 10:28:07;;;;;;;;;1.00;1.00;;;;;;;;5067675;28;45239;-78
2024/01/26 10:30:32;;;;;;;;;1.00;0.33;;;;;;;;5052527;28;45440;-80
2024/01/26 10:32:57;;;;;;;;;1.00;0.00;;;;;;;;5068829;28;46324;-82
2024/01/26 10:35:23;;;;;;;;;0.00;0.00;;;;;;;;5052251;28;47327;-79
2024/01/26 10:37:48;;;;;;;;;1.00;1.00;;;;;;;;5069920;28;45513;-79
2024/01/26 10:40:15;;;;;;;;;0.00;0.00;;;;;;;;5071273;28;45506;-80
2024/01/26 10:42:41;;;;;;;;;0.75;0.00;;;;;;;;5073968;28;45430;-78
2024/01/26 10:45:08;;;;;;;;;1.00;1.00;;;;;;;;5069340;28;45444;-79
2024/01/26 10:47:34;;;;;;;;;0.67;0.67;;;;;;;;5069655;27;45296;-80
2024/01/26 10:50:05;;;;;;;;;3.00;1.33;;;;;;;;5071100;27;45207;-79
2024/01/26 10:52:32;;;;;;;;;0.00;0.00;;;;;;;;5069788;28;45489;-77
2024/01/26 10:54:57;;;;;;;;;1.33;0.67;;;;;;;;5071510;27;46390;-79
2024/01/26 10:57:22;;;;;;;;;0.33;0.00;;;;;;;;5072355;28;45236;-79
2024/01/26 10:59:48;;;;;;;;;0.00;0.00;;;;;;;;5060811;28;45263;-79
2024/01/26 11:02:30;;;;;;;;;0.00;0.00;;;;;;;;5060174;28;45458;-79
2024/01/26 11:04:56;;;;;;;;;0.00;0.00;;;;;;;;5043517;28;46472;-78
2024/01/26 11:07:21;;;;;;;;;0.00;0.00;;;;;;;;5059060;28;45343;-79
2024/01/26 11:09:49;;;;;;;;;0.50;0.50;;;;;;;;5059233;28;45373;-79
2024/01/26 11:12:18;;;;;;;;;0.00;0.00;;;;;;;;5060190;28;45466;-77
2024/01/26 11:14:43;;;;;;;;;0.00;0.00;;;;;;;;5060026;28;46553;-79
2024/01/26 11:17:09;;;;;;;;;2.00;0.00;;;;;;;;5040965;28;46276;-79
2024/01/26 11:19:35;;;;;;;;;2.33;0.67;;;;;;;;5059067;28;45381;-82
2024/01/26 11:22:02;;;;;;;;;0.33;0.33;;;;;;;;5059775;28;45484;-80
2024/01/26 11:24:31;;;;;;;;;1.33;1.33;;;;;;;;5060112;28;45311;-79
2024/01/26 11:27:00;;;;;;;;;2.00;0.33;;;;;;;;5060018;28;45385;-80
2024/01/26 11:29:32;;;;;;;;;2.00;0.67;;;;;;;;5060174;28;45415;-79
2024/01/26 11:31:57;;;;;;;;;0.00;0.00;;;;;;;;5039721;28;45476;-77
2024/01/26 11:34:23;;;;;;;;;0.00;0.00;;;;;;;;5039796;28;45400;-79
2024/01/26 11:36:48;;;;;;;;;1.75;0.25;;;;;;;;5038354;28;45388;-78
2024/01/26 11:39:16;;;;;;;;;1.67;0.67;;;;;;;;5039841;28;45408;-78
2024/01/26 11:41:42;;;;;;;;;0.00;0.00;;;;;;;;5038503;28;46226;-78
2024/01/26 11:44:14;;;;;;;;;0.00;0.00;;;;;;;;5045601;28;46467;-77
2024/01/26 11:46:40;;;;;;;;;0.67;0.67;;;;;;;;5057737;28;45463;-79
2024/01/26 11:49:05;;;;;;;;;1.00;1.00;;;;;;;;5061660;28;45336;-78
2024/01/26 11:51:30;;;;;;;;;1.00;0.00;;;;;;;;5052498;28;47085;-78
2024/01/26 11:53:56;;;;;;;;;0.25;0.25;;;;;;;;5041387;28;47578;-78
2024/01/26 11:56:21;;;;;;;;;0.00;0.00;;;;;;;;5053979;28;47738;-78
2024/01/26 11:58:46;;;;;;;;;1.33;0.00;;;;;;;;5060690;28;45347;-79
2024/01/26 12:01:12;;;;;;;;;1.00;0.00;;;;;;;;5064129;28;45535;-78
2024/01/26 12:03:38;;;;;;;;;1.00;1.00;;;;;;;;5067593;28;45981;-79
2024/01/26 12:06:03;;;;;;;;;1.00;1.00;;;;;;;;5066239;28;45491;-78
2024/01/26 12:08:28;;;;;;;;;0.00;0.00;;;;;;;;5050940;28;45417;-79
2024/01/26 12:10:54;;;;;;;;;3.00;1.00;;;;;;;;5048164;28;46124;-79
2024/01/26 12:13:20;;;;;;;;;0.50;0.50;;;;;;;;5064175;27;45355;-78
2024/01/26 12:19:09;;;;;;;;;0.00;0.00;;;;;;;;5062089;27;45575;-78
2024/01/26 12:21:35;;;;;;;;;1.50;0.00;;;;;;;;5045042;28;45360;-78
2024/01/26 12:24:00;;;;;;;;;1.00;0.00;;;;;;;;5043610;28;47087;-79
2024/01/26 12:26:26;;;;;;;;;0.00;0.00;;;;;;;;5064805;28;45475;-77
2024/01/26 12:28:51;;;;;;;;;1.00;1.00;;;;;;;;5045631;28;45356;-75
2024/01/26 12:31:17;;;;;;;;;0.50;0.50;;;;;;;;5070436;28;45548;-77
2024/01/26 12:33:43;;;;;;;;;0.00;0.00;;;;;;;;5071917;28;45631;-80
2024/01/26 12:36:12;;;;;;;;;0.25;0.25;;;;;;;;5069319;28;45353;-77
2024/01/26 12:38:37;;;;;;;;;0.00;0.00;;;;;;;;5068341;28;45942;-79
2024/01/26 12:41:02;;;;;;;;;0.75;0.00;;;;;;;;5053704;28;46139;-77
2024/01/26 12:43:28;;;;;;;;;1.00;0.00;;;;;;;;5070128;28;46037;-79
2024/01/26 12:45:53;;;;;;;;;0.33;0.33;;;;;;;;5052724;28;45402;-78
2024/01/26 12:48:19;;;;;;;;;0.00;0.00;;;;;;;;5069122;28;45340;-80
2024/01/26 12:50:46;;;;;;;;;2.00;0.67;;;;;;;;5052861;28;46989;-80
2024/01/26 12:53:11;;;;;;;;;0.50;0.25;;;;;;;;5050427;28;47266;-78
2024/01/26 12:55:36;;;;;;;;;1.00;1.00;;;;;;;;5071920;28;45445;-78
2024/01/26 12:58:02;;;;;;;;;0.25;0.25;;;;;;;;5067718;28;45469;-80
2024/01/26 13:00:27;;;;;;;;;0.00;0.00;;;;;;;;5066908;28;45362;-77
2024/01/26 13:02:53;;;;;;;;;2.00;1.00;;;;;;;;5057926;28;48558;-81
2024/01/26 13:05:19;;;;;;;;;0.00;0.00;;;;;;;;5079564;28;45390;-78
2024/01/26 13:07:44;;;;;;;;;0.00;0.00;;;;;;;;5053425;28;45356;-79
2024/01/26 13:10:09;;;;;;;;;2.25;1.00;;;;;;;;5060687;28;45343;-78
2024/01/26 13:12:34;;;;;;;;;0.00;0.00;;;;;;;;5060707;28;45431;-80
2024/01/26 13:15:00;;;;;;;;;0.33;0.33;;;;;;;;5060652;28;45273;-79
2024/01/26 13:17:26;;;;;;;;;1.00;0.00;;;;;;;;5060504;28;45280;-78
2024/01/26 13:19:51;;;;;;;;;0.33;0.00;;;;;;;;5042367;28;45285;-77
2024/01/26 13:22:16;;;;;;;;;0.00;0.00;;;;;;;;5050529;28;46693;-78
2024/01/26 13:24:41;;;;;;;;;0.00;0.00;;;;;;;;5059627;28;45291;-79
2024/01/26 13:27:07;;;;;;;;;0.00;0.00;;;;;;;;5041646;28;45465;-77
2024/01/26 13:29:33;;;;;;;;;0.00;0.00;;;;;;;;5060327;28;45901;-77
2024/01/26 13:31:58;;;;;;;;;0.00;0.00;;;;;;;;5065530;28;45329;-77
2024/01/26 13:34:23;;;;;;;;;0.33;0.33;;;;;;;;5069484;28;45460;-77
2024/01/26 13:36:49;;;;;;;;;0.00;0.00;;;;;;;;5050591;28;45423;-77
2024/01/26 13:39:14;;;;;;;;;0.33;0.33;;;;;;;;5068644;28;45397;-77
2024/01/26 13:41:39;;;;;;;;;0.00;0.00;;;;;;;;5068189;28;45825;-77
2024/01/26 13:44:04;;;;;;;;;0.00;0.00;;;;;;;;5065279;28;45676;-77
2024/01/26 13:46:29;;;;;;;;;1.00;0.00;;;;;;;;5051007;28;45305;-78
2024/01/26 13:48:55;;;;;;;;;0.00;0.00;;;;;;;;5061536;28;45286;-79
2024/01/26 13:51:20;;;;;;;;;0.00;0.00;;;;;;;;5041321;28;47789;-77
2024/01/26 13:53:45;;;;;;;;;0.00;0.00;;;;;;;;5067903;28;45276;-78
2024/01/26 13:56:11;;;;;;;;;0.00;0.00;;;;;;;;5063852;28;45597;-76
2024/01/26 13:58:36;;;;;;;;;0.00;0.00;;;;;;;;5042015;28;45418;-77
2024/01/26 14:01:01;;;;;;;;;0.50;0.00;;;;;;;;5040067;28;45377;-77
2024/01/26 14:03:26;;;;;;;;;0.00;0.00;;;;;;;;5040169;28;45376;-76
2024/01/26 14:05:51;;;;;;;;;0.00;0.00;;;;;;;;5039884;28;45295;-77
2024/01/26 14:08:17;;;;;;;;;0.00;0.00;;;;;;;;5059811;27;45536;-76
2024/01/26 14:10:42;;;;;;;;;0.00;0.00;;;;;;;;5079478;27;45409;-77
2024/01/26 14:13:07;;;;;;;;;0.00;0.00;;;;;;;;5071314;28;45417;-78
2024/01/26 14:15:35;;;;;;;;;1.00;1.00;;;;;;;;5059743;28;45376;-82
2024/01/26 14:18:00;;;;;;;;;0.00;0.00;;;;;;;;5059692;28;45827;-78
2024/01/26 14:20:25;;;;;;;;;0.00;0.00;;;;;;;;5059586;28;45441;-79